createdAt,value
2023-02-11T00:00:58.531Z,4.00
2023-02-11T00:03:30.386Z,3.22
2023-02-11T00:06:01.954Z,5.73
2023-02-11T00:08:33.833Z,2.70
2023-02-11T00:11:05.430Z,5.03
2023-02-11T00:13:37.253Z,4.28
2023-02-11T00:16:08.774Z,4.65
2023-02-11T00:18:40.653Z,4.80
2023-02-11T00:21:12.134Z,5.23
2023-02-11T00:23:43.671Z,5.03
2023-02-11T00:26:15.293Z,2.97
2023-02-11T00:28:47.115Z,4.32
2023-02-11T00:31:18.697Z,4.53
2023-02-11T00:33:50.698Z,3.78
2023-02-11T00:36:22.244Z,4.67
2023-02-11T00:38:54.061Z,3.53
2023-02-11T00:41:26.056Z,4.83
2023-02-11T00:43:57.880Z,5.00
2023-02-11T00:46:29.425Z,3.83
2023-02-11T00:49:01.159Z,2.33
2023-02-11T00:51:32.650Z,5.05
2023-02-11T00:54:04.446Z,3.70
2023-02-11T00:56:35.989Z,1.63
2023-02-11T00:59:07.843Z,3.97
2023-02-11T01:01:39.928Z,3.47
2023-02-11T01:04:11.837Z,3.08
2023-02-11T01:06:43.343Z,4.43
2023-02-11T01:09:15.224Z,2.92
2023-02-11T01:11:46.702Z,5.13
2023-02-11T01:14:18.833Z,3.55
2023-02-11T01:16:50.342Z,4.88
2023-02-11T01:19:21.854Z,5.38
2023-02-11T01:21:53.331Z,4.53
2023-02-11T01:24:25.066Z,5.65
2023-02-11T01:26:56.567Z,4.22
2023-02-11T01:29:28.232Z,4.88
2023-02-11T01:32:00.003Z,4.63
2023-02-11T01:34:31.824Z,4.80
2023-02-11T01:37:03.317Z,3.43
2023-02-11T01:39:34.824Z,5.90
2023-02-11T01:42:06.306Z,4.43
2023-02-11T01:44:37.859Z,4.72
2023-02-11T01:47:09.379Z,3.08
2023-02-11T01:49:41.224Z,4.55
2023-02-11T01:52:12.724Z,5.07
2023-02-11T01:55:03.171Z,6.13
2023-02-11T01:57:34.871Z,3.53
2023-02-11T02:00:06.716Z,4.05
2023-02-11T02:02:38.549Z,4.67
2023-02-11T02:05:10.047Z,4.10
2023-02-11T02:07:41.812Z,4.32
2023-02-11T02:10:13.380Z,4.53
2023-02-11T02:12:44.900Z,5.03
2023-02-11T02:15:16.382Z,4.18
2023-02-11T02:17:48.171Z,4.10
2023-02-11T02:20:19.671Z,3.50
2023-02-11T02:22:51.455Z,3.05
2023-02-11T02:25:22.950Z,4.80
2023-02-11T02:27:55.080Z,4.07
2023-02-11T02:30:26.626Z,3.03
2023-02-11T02:32:58.651Z,5.55
2023-02-11T02:35:30.254Z,4.90
2023-02-11T02:38:01.946Z,5.50
2023-02-11T02:40:33.577Z,5.85
2023-02-11T02:43:05.357Z,5.40
2023-02-11T02:45:36.864Z,5.35
2023-02-11T02:48:08.573Z,4.82
2023-02-11T02:50:40.082Z,4.45
2023-02-11T02:53:11.888Z,4.43
2023-02-11T02:55:43.414Z,6.00
2023-02-11T02:58:14.910Z,4.55
2023-02-11T03:00:46.435Z,3.55
2023-02-11T03:03:18.220Z,4.57
2023-02-11T03:05:50.136Z,6.45
2023-02-11T03:08:22.130Z,4.15
2023-02-11T03:10:53.717Z,4.93
2023-02-11T03:13:25.535Z,5.07
2023-02-11T03:15:57.085Z,5.85
2023-02-11T03:18:28.982Z,6.78
2023-02-11T03:21:00.571Z,5.77
2023-02-11T03:23:32.326Z,4.43
2023-02-11T03:26:03.886Z,3.40
2023-02-11T03:28:35.761Z,5.60
2023-02-11T03:31:07.411Z,5.63
2023-02-11T03:33:39.387Z,5.63
2023-02-11T03:36:10.970Z,3.90
2023-02-11T03:38:42.808Z,4.97
2023-02-11T03:41:14.356Z,5.32
2023-02-11T03:43:46.258Z,5.72
2023-02-11T03:46:17.892Z,4.43
2023-02-11T03:48:49.876Z,5.80
2023-02-11T03:51:21.381Z,4.90
2023-02-11T03:53:53.087Z,7.15
2023-02-11T03:56:24.697Z,4.88
2023-02-11T03:58:56.621Z,5.57
2023-02-11T04:01:28.206Z,4.80
2023-02-11T04:04:00.108Z,4.88
2023-02-11T04:06:31.638Z,5.60
2023-02-11T04:09:03.379Z,5.13
2023-02-11T04:11:34.942Z,6.80
2023-02-11T04:14:06.771Z,6.07
2023-02-11T04:16:38.334Z,7.10
2023-02-11T04:19:09.955Z,5.85
2023-02-11T04:21:41.495Z,6.07
2023-02-11T04:24:16.595Z,5.40
2023-02-11T04:26:48.180Z,6.22
2023-02-11T04:29:20.103Z,5.10
2023-02-11T04:31:51.654Z,4.50
2023-02-11T04:34:24.513Z,5.20
2023-02-11T04:39:27.887Z,7.53
2023-02-11T04:41:59.414Z,5.20
2023-02-11T04:44:31.245Z,6.03
2023-02-11T04:47:03.059Z,4.38
2023-02-11T04:49:34.663Z,6.10
2023-02-11T04:52:06.675Z,6.38
2023-02-11T04:54:38.232Z,6.20
2023-02-11T04:57:10.316Z,6.10
2023-02-11T04:59:41.859Z,5.32
2023-02-11T05:02:13.790Z,3.38
2023-02-11T05:04:45.356Z,5.80
2023-02-11T05:07:17.023Z,5.88
2023-02-11T05:09:48.537Z,6.22
2023-02-11T05:12:20.565Z,5.15
2023-02-11T05:14:52.091Z,6.65
2023-02-11T05:17:24.016Z,5.13
2023-02-11T05:19:55.612Z,5.97
2023-02-11T05:22:27.290Z,6.13
2023-02-11T05:24:58.811Z,5.45
2023-02-11T05:27:30.734Z,4.82
2023-02-11T05:30:02.703Z,4.37
2023-02-11T05:32:34.221Z,5.00
2023-02-11T05:35:06.059Z,7.13
2023-02-11T05:37:37.704Z,5.00
2023-02-11T05:40:09.613Z,6.07
2023-02-11T05:42:41.250Z,6.72
2023-02-11T05:45:13.207Z,8.15
2023-02-11T05:47:44.793Z,6.93
2023-02-11T05:50:16.770Z,5.03
2023-02-11T05:52:48.312Z,7.50
2023-02-11T05:55:20.162Z,7.50
2023-02-11T05:57:51.678Z,7.15
2023-02-11T06:00:23.541Z,6.55
2023-02-11T06:02:55.178Z,6.67
2023-02-11T06:05:27.109Z,6.13
2023-02-11T06:07:58.619Z,7.03
2023-02-11T06:10:30.450Z,6.38
2023-02-11T06:13:02.033Z,7.15
2023-02-11T06:15:33.773Z,6.13
2023-02-11T06:18:05.340Z,5.93
2023-02-11T06:20:37.684Z,7.60
2023-02-11T06:23:09.366Z,5.28
2023-02-11T06:25:41.340Z,5.55
2023-02-11T06:28:13.120Z,4.23
2023-02-11T06:30:45.212Z,6.75
2023-02-11T06:33:16.787Z,5.90
2023-02-11T06:35:48.767Z,6.63
2023-02-11T06:38:20.539Z,8.30
2023-02-11T06:40:52.439Z,5.82
2023-02-11T06:43:23.980Z,7.97
2023-02-11T06:45:55.914Z,7.35
2023-02-11T06:48:27.436Z,9.07
2023-02-11T06:50:59.226Z,7.22
2023-02-11T06:53:30.751Z,7.50
2023-02-11T06:56:02.293Z,6.30
2023-02-11T06:58:33.860Z,5.50
2023-02-11T07:01:06.834Z,6.00
2023-02-11T07:03:38.448Z,6.47
2023-02-11T07:06:10.330Z,6.50
2023-02-11T07:08:43.014Z,7.40
2023-02-11T07:11:14.889Z,6.50
2023-02-11T07:13:46.477Z,6.70
2023-02-11T07:16:18.605Z,8.73
2023-02-11T07:18:50.184Z,5.88
2023-02-11T07:21:22.106Z,5.68
2023-02-11T07:23:53.647Z,6.13
2023-02-11T07:26:29.322Z,5.57
2023-02-11T07:29:00.859Z,5.05
2023-02-11T07:31:32.947Z,7.97
2023-02-11T07:34:04.562Z,5.68
2023-02-11T07:36:36.135Z,6.70
2023-02-11T07:39:07.658Z,5.95
2023-02-11T07:41:39.624Z,6.68
2023-02-11T07:44:11.137Z,5.87
2023-02-11T07:46:45.146Z,6.07
2023-02-11T07:49:16.800Z,7.45
2023-02-11T07:51:49.680Z,6.25
2023-02-11T07:56:53.060Z,6.53
2023-02-11T07:59:25.035Z,8.32
2023-02-11T08:01:56.998Z,8.40
2023-02-11T08:04:28.541Z,5.83
2023-02-11T08:07:00.442Z,4.55
2023-02-11T08:09:34.418Z,6.77
2023-02-11T08:12:06.168Z,7.45
2023-02-11T08:14:37.722Z,6.75
2023-02-11T08:17:09.621Z,6.10
2023-02-11T08:19:41.230Z,6.40
2023-02-11T08:22:13.142Z,6.18
2023-02-11T08:24:44.662Z,5.17
2023-02-11T08:27:16.653Z,5.78
2023-02-11T08:29:48.188Z,4.37
2023-02-11T08:32:20.121Z,4.85
2023-02-11T08:34:52.167Z,4.63
2023-02-11T08:37:23.712Z,6.25
2023-02-11T08:39:55.259Z,6.80
2023-02-11T08:42:26.814Z,3.75
2023-02-11T08:44:58.443Z,5.88
2023-02-11T08:47:30.330Z,6.18
2023-02-11T08:50:01.888Z,6.07
2023-02-11T08:52:33.498Z,4.40
2023-02-11T08:55:05.342Z,6.13
2023-02-11T08:57:37.247Z,4.13
2023-02-11T09:00:11.093Z,5.35
2023-02-11T09:02:43.103Z,6.00
2023-02-11T09:05:14.685Z,6.50
2023-02-11T09:07:46.465Z,4.80
2023-02-11T09:10:18.016Z,6.63
2023-02-11T09:12:49.922Z,5.35
2023-02-11T09:15:21.477Z,5.22
2023-02-11T09:17:53.155Z,6.13
2023-02-11T09:20:24.690Z,6.63
2023-02-11T09:22:56.744Z,5.82
2023-02-11T09:25:28.298Z,6.25
2023-02-11T09:28:00.222Z,6.30
2023-02-11T09:30:31.837Z,4.93
2023-02-11T09:33:03.664Z,5.50
2023-02-11T09:35:35.267Z,6.25
2023-02-11T09:38:07.142Z,5.30
2023-02-11T09:40:38.678Z,6.30
2023-02-11T09:43:10.631Z,6.45
2023-02-11T09:45:42.870Z,7.60
2023-02-11T09:48:14.482Z,5.97
2023-02-11T09:50:46.374Z,6.43
2023-02-11T09:53:17.904Z,4.78
2023-02-11T09:55:49.879Z,6.35
2023-02-11T09:58:21.419Z,5.60
2023-02-11T10:00:53.206Z,6.55
2023-02-11T10:03:24.890Z,6.10
2023-02-11T10:05:56.725Z,4.65
2023-02-11T10:08:28.276Z,5.28
2023-02-11T10:11:00.170Z,6.57
2023-02-11T10:13:31.679Z,5.88
2023-02-11T10:16:03.245Z,5.53
2023-02-11T10:18:34.955Z,6.20
2023-02-11T10:21:06.522Z,4.25
2023-02-11T10:23:38.086Z,5.85
2023-02-11T10:26:09.767Z,3.25
2023-02-11T10:28:41.391Z,5.20
2023-02-11T10:31:15.900Z,3.70
2023-02-11T10:33:47.765Z,6.22
2023-02-11T10:36:19.778Z,5.32
2023-02-11T10:38:51.374Z,6.87
2023-02-11T10:41:23.227Z,5.55
2023-02-11T10:43:54.769Z,3.80
2023-02-11T10:46:27.176Z,5.90
2023-02-11T10:48:58.830Z,6.22
2023-02-11T10:51:31.809Z,3.95
2023-02-11T10:54:03.341Z,4.05
2023-02-11T10:56:35.252Z,6.03
2023-02-11T10:59:06.781Z,4.97
2023-02-11T11:01:38.800Z,6.25
2023-02-11T11:04:10.331Z,5.00
2023-02-11T11:06:41.853Z,3.58
2023-02-11T11:09:13.491Z,5.22
2023-02-11T11:11:45.187Z,4.85
2023-02-11T11:14:16.690Z,4.85
2023-02-11T11:16:48.558Z,5.53
2023-02-11T11:19:20.424Z,4.53
2023-02-11T11:21:52.064Z,4.07
2023-02-11T11:24:25.536Z,4.28
2023-02-11T11:26:58.492Z,5.10
2023-02-11T11:29:30.463Z,3.65
2023-02-11T11:32:04.427Z,4.33
2023-02-11T11:34:37.151Z,5.40
2023-02-11T11:37:08.695Z,5.18
2023-02-11T11:39:40.231Z,6.13
2023-02-11T11:42:12.102Z,4.18
2023-02-11T11:44:43.641Z,5.00
2023-02-11T11:47:15.325Z,3.22
2023-02-11T11:49:46.842Z,4.40
2023-02-11T11:52:18.668Z,2.97
2023-02-11T11:54:50.190Z,4.72
2023-02-11T11:57:21.751Z,4.03
2023-02-11T11:59:53.351Z,4.70
2023-02-11T12:02:24.956Z,6.07
2023-02-11T12:04:56.700Z,4.25
2023-02-11T12:07:28.283Z,4.43
2023-02-11T12:09:59.787Z,4.47
2023-02-11T12:12:32.593Z,5.25
2023-02-11T12:17:35.770Z,3.78
2023-02-11T12:20:07.832Z,5.30
2023-02-11T12:22:39.547Z,3.30
2023-02-11T12:25:11.073Z,2.85
2023-02-11T12:27:42.929Z,4.15
2023-02-11T12:30:14.505Z,4.25
2023-02-11T12:32:46.420Z,3.50
2023-02-11T12:35:17.920Z,4.47
2023-02-11T12:37:49.642Z,3.50
2023-02-11T12:40:21.871Z,3.47
2023-02-11T12:43:12.158Z,3.00
2023-02-11T12:45:43.759Z,3.00
2023-02-11T12:48:15.313Z,3.00
2023-02-11T12:50:46.929Z,3.50
2023-02-11T12:53:18.519Z,4.20
2023-02-11T12:55:50.035Z,3.65
2023-02-11T12:58:25.382Z,2.85
2023-02-11T13:01:01.126Z,3.47
2023-02-11T13:03:33.178Z,2.95
2023-02-11T13:06:04.748Z,3.77
2023-02-11T13:08:36.611Z,3.58
2023-02-11T13:11:14.282Z,2.97
2023-02-11T13:13:46.426Z,3.30
2023-02-11T13:16:18.004Z,3.63
2023-02-11T13:18:49.683Z,3.25
2023-02-11T13:21:21.225Z,3.60
2023-02-11T13:23:52.811Z,3.47
2023-02-11T13:26:24.325Z,3.03
2023-02-11T13:28:55.837Z,2.50
2023-02-11T13:31:28.829Z,4.18
2023-02-11T13:34:01.277Z,4.10
2023-02-11T13:36:34.042Z,4.05
2023-02-11T13:41:37.473Z,2.85
2023-02-11T13:44:09.410Z,3.25
2023-02-11T13:46:40.916Z,3.50
2023-02-11T13:49:12.983Z,3.55
2023-02-11T13:51:44.485Z,4.10
2023-02-11T13:54:16.338Z,4.53
2023-02-11T13:56:49.254Z,3.35
2023-02-11T14:02:12.903Z,2.28
2023-02-11T14:05:03.163Z,2.83
2023-02-11T14:07:53.970Z,2.13
2023-02-11T14:10:25.505Z,3.58
2023-02-11T14:12:57.341Z,2.45
2023-02-11T14:15:29.140Z,3.78
2023-02-11T14:18:01.033Z,3.03
2023-02-11T14:20:32.535Z,4.00
2023-02-11T14:23:04.978Z,3.33
2023-02-11T14:25:36.494Z,3.47
2023-02-11T14:28:08.139Z,3.70
2023-02-11T14:30:42.788Z,4.15
2023-02-11T14:33:14.807Z,1.92
2023-02-11T14:35:46.350Z,2.87
2023-02-11T14:38:17.877Z,3.58
2023-02-11T14:40:49.759Z,2.88
2023-02-11T14:43:21.858Z,4.72
2023-02-11T14:45:53.677Z,2.35
2023-02-11T14:48:25.509Z,3.50
2023-02-11T14:50:57.003Z,2.90
2023-02-11T14:53:28.866Z,2.42
2023-02-11T14:56:00.426Z,2.28
2023-02-11T14:58:32.336Z,3.03
2023-02-11T15:01:05.663Z,3.35
2023-02-11T15:03:37.651Z,2.88
2023-02-11T15:06:09.296Z,3.87
2023-02-11T15:08:40.782Z,2.90
2023-02-11T15:11:12.361Z,2.50
2023-02-11T15:13:50.896Z,3.22
2023-02-11T15:16:22.979Z,3.28
2023-02-11T15:18:55.492Z,3.58
2023-02-11T15:21:27.308Z,2.55
2023-02-11T15:23:59.155Z,2.60
2023-02-11T15:26:30.703Z,2.53
2023-02-11T15:29:02.650Z,2.58
2023-02-11T15:31:35.243Z,2.33
2023-02-11T15:34:06.975Z,3.50
2023-02-11T15:36:38.614Z,3.05
2023-02-11T15:39:10.600Z,2.78
2023-02-11T15:41:42.799Z,2.93
2023-02-11T15:44:14.295Z,2.80
2023-02-11T15:46:47.472Z,3.72
2023-02-11T15:49:19.365Z,2.80
2023-02-11T15:51:50.963Z,2.85
2023-02-11T15:54:22.605Z,2.33
2023-02-11T15:56:55.431Z,2.35
2023-02-11T15:59:27.530Z,2.42
2023-02-11T16:01:59.092Z,3.70
2023-02-11T16:04:30.985Z,2.42
2023-02-11T16:07:03.093Z,3.22
2023-02-11T16:09:34.994Z,2.53
2023-02-11T16:14:39.602Z,2.65
2023-02-11T16:17:11.135Z,2.20
2023-02-11T16:19:42.663Z,3.05
2023-02-11T16:22:14.146Z,3.30
2023-02-11T16:24:45.978Z,2.58
2023-02-11T16:27:17.452Z,2.90
2023-02-11T16:29:49.299Z,2.75
2023-02-11T16:32:20.838Z,2.47
2023-02-11T16:34:52.365Z,2.50
2023-02-11T16:37:23.876Z,2.42
2023-02-11T16:39:55.714Z,2.22
2023-02-11T16:42:27.361Z,1.80
2023-02-11T16:44:59.908Z,2.40
2023-02-11T16:47:31.471Z,1.67
2023-02-11T16:50:03.364Z,2.30
2023-02-11T16:52:34.899Z,2.35
2023-02-11T16:55:06.853Z,2.20
2023-02-11T16:57:38.339Z,2.13
2023-02-11T17:00:10.684Z,2.55
2023-02-11T17:02:42.175Z,1.58
2023-02-11T17:05:13.772Z,2.63
2023-02-11T17:07:45.295Z,2.33
2023-02-11T17:10:16.809Z,2.58
2023-02-11T17:12:48.306Z,2.40
2023-02-11T17:15:19.834Z,2.72
2023-02-11T17:17:51.608Z,1.80
2023-02-11T17:20:23.178Z,2.47
2023-02-11T17:22:54.699Z,1.80
2023-02-11T17:25:26.204Z,2.47
2023-02-11T17:27:57.696Z,1.67
2023-02-11T17:30:29.215Z,1.80
2023-02-11T17:33:00.916Z,1.63
2023-02-11T17:35:32.414Z,2.20
2023-02-11T17:38:04.346Z,2.20
2023-02-11T17:40:36.248Z,1.53
2023-02-11T17:43:07.917Z,1.40
2023-02-11T17:45:39.565Z,1.88
2023-02-11T17:48:11.434Z,1.75
2023-02-11T17:50:42.932Z,3.72
2023-02-11T17:53:14.467Z,1.58
2023-02-11T17:55:45.937Z,1.70
2023-02-11T17:58:17.470Z,1.83
2023-02-11T18:00:49.084Z,2.08
2023-02-11T18:03:20.675Z,1.35
2023-02-11T18:05:52.520Z,1.33
2023-02-11T18:08:24.487Z,2.00
2023-02-11T18:10:55.955Z,1.48
2023-02-11T18:13:27.714Z,1.92
2023-02-11T18:15:59.256Z,1.08
2023-02-11T18:18:31.038Z,1.60
2023-02-11T18:21:03.951Z,1.90
2023-02-11T18:26:07.618Z,1.63
2023-02-11T18:28:39.190Z,1.58
2023-02-11T18:31:10.949Z,1.40
2023-02-11T18:33:42.834Z,1.50
2023-02-11T18:36:14.377Z,1.13
2023-02-11T18:38:46.312Z,1.63
2023-02-11T18:41:17.799Z,1.48
2023-02-11T18:43:49.438Z,1.75
2023-02-11T18:46:21.020Z,1.08
2023-02-11T18:48:56.084Z,1.60
2023-02-11T18:51:28.051Z,1.42
2023-02-11T18:54:00.059Z,1.17
2023-02-11T18:56:31.561Z,1.70
2023-02-11T18:59:04.067Z,1.27
2023-02-11T19:01:35.751Z,1.25
2023-02-11T19:04:07.469Z,1.40
2023-02-11T19:06:39.075Z,1.60
2023-02-11T19:09:11.472Z,1.50
2023-02-11T19:11:50.235Z,1.55
2023-02-11T19:14:22.188Z,1.90
2023-02-11T19:16:53.854Z,1.30
2023-02-11T19:19:25.988Z,1.38
2023-02-11T19:21:57.741Z,1.75
2023-02-11T19:24:29.730Z,1.58
2023-02-11T19:27:01.298Z,1.67
2023-02-11T19:29:35.288Z,1.40
2023-02-11T19:32:07.337Z,1.55
2023-02-11T19:34:41.577Z,2.07
2023-02-11T19:37:13.182Z,1.63
2023-02-11T19:39:45.338Z,1.20
2023-02-11T19:42:16.854Z,1.70
2023-02-11T19:44:48.393Z,1.42
2023-02-11T19:47:19.995Z,2.30
2023-02-11T19:49:51.878Z,1.30
2023-02-11T19:52:23.356Z,1.60
2023-02-11T19:54:55.203Z,1.05
2023-02-11T19:57:26.679Z,1.65
2023-02-11T19:59:58.755Z,1.85
2023-02-11T20:02:31.169Z,2.20
2023-02-11T20:05:04.267Z,1.75
2023-02-11T20:07:36.043Z,1.65
2023-02-11T20:10:07.743Z,1.40
2023-02-11T20:12:39.287Z,2.63
2023-02-11T20:15:11.081Z,1.48
2023-02-11T20:17:42.649Z,1.40
2023-02-11T20:20:14.221Z,1.67
2023-02-11T20:22:45.758Z,1.20
2023-02-11T20:25:17.387Z,1.92
2023-02-11T20:27:49.229Z,1.88
2023-02-11T20:30:21.786Z,1.67
2023-02-11T20:32:53.429Z,1.83
2023-02-11T20:35:24.937Z,2.13
2023-02-11T20:37:56.742Z,2.05
2023-02-11T20:40:28.290Z,1.77
2023-02-11T20:42:59.787Z,1.83
2023-02-11T20:45:31.833Z,1.88
2023-02-11T20:48:03.414Z,2.20
2023-02-11T20:50:35.022Z,1.60
2023-02-11T20:53:06.630Z,2.15
2023-02-11T20:55:38.659Z,1.42
2023-02-11T20:58:10.226Z,1.37
2023-02-11T21:00:41.944Z,2.10
2023-02-11T21:03:13.474Z,1.20
2023-02-11T21:05:45.321Z,2.20
2023-02-11T21:08:16.895Z,1.23
2023-02-11T21:10:48.841Z,1.08
2023-02-11T21:13:20.334Z,1.63
2023-02-11T21:15:52.490Z,1.15
2023-02-11T21:18:24.210Z,1.27
2023-02-11T21:20:56.067Z,1.33
2023-02-11T21:23:29.058Z,1.83
2023-02-11T21:26:00.918Z,1.25
2023-02-11T21:28:32.443Z,1.42
2023-02-11T21:31:04.273Z,1.20
2023-02-11T21:33:35.830Z,1.25
2023-02-11T21:36:08.037Z,0.98
2023-02-11T21:38:39.668Z,1.65
2023-02-11T21:41:11.570Z,1.35
2023-02-11T21:43:43.151Z,1.63
2023-02-11T21:46:14.748Z,1.42
2023-02-11T21:48:46.413Z,1.38
2023-02-11T21:51:18.906Z,1.70
2023-02-11T21:53:50.404Z,1.98
2023-02-11T21:56:22.421Z,1.15
2023-02-11T21:58:54.151Z,1.27
2023-02-11T22:01:26.020Z,1.30
2023-02-11T22:03:57.519Z,1.60
2023-02-11T22:06:31.439Z,1.38
2023-02-11T22:09:02.923Z,1.30
2023-02-11T22:11:34.691Z,1.45
2023-02-11T22:14:06.178Z,1.13
2023-02-11T22:16:38.121Z,1.98
2023-02-11T22:19:09.690Z,1.10
2023-02-11T22:21:43.067Z,1.35
2023-02-11T22:24:14.555Z,1.80
2023-02-11T22:26:46.396Z,1.95
2023-02-11T22:29:17.952Z,1.65
2023-02-11T22:31:49.870Z,1.75
2023-02-11T22:34:21.391Z,1.60
2023-02-11T22:36:53.301Z,1.30
2023-02-11T22:39:24.847Z,1.85
2023-02-11T22:41:56.876Z,1.33
2023-02-11T22:44:28.373Z,2.00
2023-02-11T22:47:00.311Z,1.35
2023-02-11T22:49:33.196Z,1.00
2023-02-11T22:52:04.758Z,1.58
2023-02-11T22:54:36.349Z,1.35
2023-02-11T22:57:08.216Z,1.10
2023-02-11T22:59:39.702Z,1.10
2023-02-11T23:02:11.517Z,1.30
2023-02-11T23:04:43.206Z,1.37
2023-02-11T23:07:14.789Z,1.58
2023-02-11T23:09:46.288Z,0.95
2023-02-11T23:12:17.825Z,1.77
2023-02-11T23:14:49.356Z,1.08
2023-02-11T23:17:20.905Z,1.20
2023-02-11T23:19:52.425Z,1.10
2023-02-11T23:22:24.180Z,1.20
2023-02-11T23:24:55.715Z,1.27
2023-02-11T23:27:27.545Z,1.33
2023-02-11T23:29:59.064Z,1.38
2023-02-11T23:32:30.989Z,1.60
2023-02-11T23:35:02.603Z,1.20
2023-02-11T23:37:34.214Z,1.73
2023-02-11T23:40:05.772Z,1.35
2023-02-11T23:42:37.631Z,1.38
2023-02-11T23:45:09.123Z,1.60
2023-02-11T23:47:41.885Z,1.42
2023-02-11T23:50:13.371Z,1.65
2023-02-11T23:52:45.147Z,1.58
2023-02-11T23:55:16.656Z,1.35
2023-02-11T23:57:48.678Z,1.50
